createdAt,value
2019-02-18T00:01:23.032Z,72.73
2019-02-18T00:03:49.917Z,66.97
2019-02-18T00:06:16.954Z,65.30
2019-02-18T00:08:43.898Z,70.60
2019-02-18T00:11:12.042Z,73.30
2019-02-18T00:13:38.884Z,64.60
2019-02-18T00:16:05.876Z,75.47
2019-02-18T00:18:32.886Z,84.87
2019-02-18T00:20:59.819Z,76.67
2019-02-18T00:23:26.900Z,62.20
2019-02-18T00:25:53.947Z,86.50
2019-02-18T00:28:20.867Z,88.87
2019-02-18T00:30:47.882Z,76.27
2019-02-18T00:33:14.840Z,76.37
2019-02-18T00:35:41.682Z,58.80
2019-02-18T00:38:08.646Z,78.63
2019-02-18T00:40:35.470Z,80.90
2019-02-18T00:43:02.498Z,72.30
2019-02-18T00:45:29.563Z,70.13
2019-02-18T00:47:56.384Z,58.43
2019-02-18T00:50:23.200Z,56.57
2019-02-18T00:52:50.063Z,60.97
2019-02-18T00:55:16.882Z,64.83
2019-02-18T00:57:43.690Z,67.33
2019-02-18T01:00:11.745Z,65.03
2019-02-18T01:02:38.674Z,72.80
2019-02-18T01:05:06.257Z,68.23
2019-02-18T01:07:35.200Z,71.73
2019-02-18T01:10:02.457Z,65.80
2019-02-18T01:12:29.465Z,76.10
2019-02-18T01:14:56.418Z,75.40
2019-02-18T01:17:23.354Z,75.77
2019-02-18T01:19:50.258Z,67.57
2019-02-18T01:22:17.098Z,71.87
2019-02-18T01:24:44.072Z,71.67
2019-02-18T01:27:11.401Z,78.30
2019-02-18T01:29:38.292Z,68.97
2019-02-18T01:32:05.125Z,69.73
2019-02-18T01:34:32.163Z,69.53
2019-02-18T01:36:59.015Z,72.83
2019-02-18T01:39:25.923Z,68.37
2019-02-18T01:41:52.942Z,73.10
2019-02-18T01:44:20.056Z,68.97
2019-02-18T01:46:46.853Z,69.37
2019-02-18T01:49:13.658Z,63.30
2019-02-18T01:51:40.670Z,68.33
2019-02-18T01:54:07.517Z,63.70
2019-02-18T01:56:34.565Z,62.53
2019-02-18T01:59:01.642Z,60.53
2019-02-18T02:01:28.573Z,59.23
2019-02-18T02:03:55.514Z,66.27
2019-02-18T02:06:22.710Z,59.33
2019-02-18T02:08:49.714Z,57.37
2019-02-18T02:11:16.524Z,60.50
2019-02-18T02:13:43.501Z,61.30
2019-02-18T02:16:11.328Z,61.13
2019-02-18T02:18:38.296Z,53.00
2019-02-18T02:21:05.457Z,60.43
2019-02-18T02:23:32.417Z,60.53
2019-02-18T02:25:59.351Z,57.50
2019-02-18T02:28:26.310Z,60.60
2019-02-18T02:30:53.240Z,62.90
2019-02-18T02:33:20.263Z,59.97
2019-02-18T02:35:47.313Z,67.07
2019-02-18T02:38:14.260Z,61.60
2019-02-18T02:40:41.291Z,63.43
2019-02-18T02:43:08.133Z,61.30
2019-02-18T02:45:35.094Z,65.30
2019-02-18T02:48:02.272Z,61.87
2019-02-18T02:50:29.151Z,63.47
2019-02-18T02:52:56.269Z,60.90
2019-02-18T02:55:23.299Z,60.10
2019-02-18T02:57:50.256Z,60.47
2019-02-18T03:00:17.294Z,61.47
2019-02-18T03:02:44.221Z,62.80
2019-02-18T03:05:11.276Z,56.80
2019-02-18T03:07:38.285Z,57.53
2019-02-18T03:10:05.390Z,54.67
2019-02-18T03:12:32.238Z,55.17
2019-02-18T03:14:59.072Z,53.17
2019-02-18T03:17:26.026Z,54.83
2019-02-18T03:19:52.863Z,50.87
2019-02-18T03:22:19.791Z,50.83
2019-02-18T03:25:15.436Z,53.27
2019-02-18T03:27:42.365Z,52.30
2019-02-18T03:30:38.051Z,50.67
2019-02-18T03:33:05.038Z,48.70
2019-02-18T03:35:31.945Z,49.77
2019-02-18T03:37:58.905Z,49.80
2019-02-18T03:40:25.939Z,49.70
2019-02-18T03:42:52.862Z,49.93
2019-02-18T03:45:19.926Z,48.23
2019-02-18T03:47:46.855Z,50.43
2019-02-18T03:50:13.762Z,49.77
2019-02-18T03:52:40.621Z,51.30
2019-02-18T03:55:07.903Z,48.97
2019-02-18T03:57:35.092Z,50.37
2019-02-18T04:00:02.433Z,49.90
2019-02-18T04:02:29.447Z,49.33
2019-02-18T04:04:56.488Z,48.20
2019-02-18T04:07:23.347Z,51.13
2019-02-18T04:09:50.263Z,48.33
2019-02-18T04:12:17.083Z,49.97
2019-02-18T04:14:44.062Z,47.07
2019-02-18T04:17:11.086Z,50.43
2019-02-18T04:19:37.914Z,50.70
2019-02-18T04:22:04.919Z,48.43
2019-02-18T04:24:31.837Z,51.83
2019-02-18T04:26:58.643Z,48.70
2019-02-18T04:29:25.526Z,48.70
2019-02-18T04:31:52.574Z,47.53
2019-02-18T04:34:19.449Z,47.23
2019-02-18T04:36:46.402Z,48.90
2019-02-18T04:39:13.213Z,49.47
2019-02-18T04:41:40.023Z,48.83
2019-02-18T04:44:06.862Z,47.37
2019-02-18T04:46:33.678Z,50.43
2019-02-18T04:49:00.604Z,47.10
2019-02-18T04:51:27.584Z,47.27
2019-02-18T04:53:54.615Z,46.93
2019-02-18T04:56:21.546Z,46.87
2019-02-18T04:58:48.479Z,47.57
2019-02-18T05:01:15.325Z,48.47
2019-02-18T05:03:42.245Z,48.53
2019-02-18T05:06:09.168Z,50.43
2019-02-18T05:08:35.999Z,50.83
2019-02-18T05:11:03.016Z,48.37
2019-02-18T05:13:30.056Z,49.87
2019-02-18T05:15:56.911Z,52.80
2019-02-18T05:18:23.850Z,50.03
2019-02-18T05:20:50.701Z,52.50
2019-02-18T05:23:17.535Z,51.33
2019-02-18T05:25:44.445Z,49.97
2019-02-18T05:28:11.284Z,50.87
2019-02-18T05:30:38.121Z,49.73
2019-02-18T05:33:05.066Z,50.93
2019-02-18T05:35:31.964Z,47.80
2019-02-18T05:37:58.890Z,50.10
2019-02-18T05:40:25.698Z,51.53
2019-02-18T05:42:52.561Z,49.43
2019-02-18T05:45:19.606Z,49.80
2019-02-18T05:47:46.510Z,54.63
2019-02-18T05:50:13.588Z,55.27
2019-02-18T05:52:40.424Z,55.70
2019-02-18T05:55:07.465Z,53.70
2019-02-18T05:57:34.535Z,56.20
2019-02-18T06:00:01.447Z,56.97
2019-02-18T06:02:28.365Z,57.63
2019-02-18T06:04:55.228Z,58.80
2019-02-18T06:07:22.143Z,56.97
2019-02-18T06:09:48.997Z,60.13
2019-02-18T06:12:16.010Z,58.80
2019-02-18T06:14:42.826Z,60.40
2019-02-18T06:17:09.855Z,66.33
2019-02-18T06:19:36.725Z,71.70
2019-02-18T06:22:03.737Z,70.50
2019-02-18T06:24:30.538Z,71.43
2019-02-18T06:26:57.382Z,79.20
2019-02-18T06:29:24.271Z,89.03
2019-02-18T06:31:51.164Z,91.33
2019-02-18T06:34:18.338Z,86.93
2019-02-18T06:36:45.435Z,91.17
2019-02-18T06:39:14.604Z,97.40
2019-02-18T06:41:41.465Z,101.90
2019-02-18T06:44:08.296Z,99.67
2019-02-18T06:46:50.498Z,108.63
2019-02-18T06:49:19.567Z,102.97
2019-02-18T06:51:46.489Z,91.70
2019-02-18T06:54:13.366Z,102.60
2019-02-18T06:56:58.408Z,109.50
2019-02-18T06:59:31.971Z,111.23
2019-02-18T07:02:04.749Z,115.83
2019-02-18T07:04:36.140Z,111.20
2019-02-18T07:07:21.766Z,112.80
2019-02-18T07:09:53.562Z,109.53
2019-02-18T07:12:31.865Z,112.63
2019-02-18T07:15:18.535Z,117.83
2019-02-18T07:17:45.391Z,113.93
2019-02-18T07:20:12.301Z,113.17
2019-02-18T07:22:39.170Z,107.00
2019-02-18T07:25:07.484Z,95.83
2019-02-18T07:27:34.455Z,94.57
2019-02-18T07:30:01.539Z,99.93
2019-02-18T07:32:28.378Z,101.93
2019-02-18T07:34:55.355Z,86.60
2019-02-18T07:37:22.529Z,94.63
2019-02-18T07:39:49.398Z,94.07
2019-02-18T07:42:16.317Z,98.90
2019-02-18T07:44:43.175Z,101.53
2019-02-18T07:47:10.267Z,96.27
2019-02-18T07:49:37.094Z,94.00
2019-02-18T07:52:04.250Z,100.87
2019-02-18T07:54:31.063Z,90.53
2019-02-18T07:56:58.084Z,87.70
2019-02-18T07:59:24.937Z,92.57
2019-02-18T08:01:51.884Z,87.10
2019-02-18T08:04:18.911Z,83.30
2019-02-18T08:06:45.983Z,85.60
2019-02-18T08:09:12.906Z,85.40
2019-02-18T08:11:39.848Z,80.23
2019-02-18T08:14:06.717Z,85.40
2019-02-18T08:16:33.630Z,81.70
2019-02-18T08:19:00.696Z,84.13
2019-02-18T08:21:27.575Z,87.93
2019-02-18T08:24:00.155Z,77.27
2019-02-18T08:26:23.775Z,80.87
2019-02-18T08:28:50.745Z,80.63
2019-02-18T08:31:17.689Z,75.40
2019-02-18T08:33:44.520Z,74.43
2019-02-18T08:36:11.591Z,76.00
2019-02-18T08:38:38.654Z,76.13
2019-02-18T08:41:05.815Z,68.80
2019-02-18T08:43:32.980Z,67.10
2019-02-18T08:45:59.811Z,66.10
2019-02-18T08:48:26.662Z,68.40
2019-02-18T08:50:53.619Z,67.77
2019-02-18T08:53:20.458Z,65.63
2019-02-18T08:55:47.297Z,62.80
2019-02-18T08:58:14.251Z,66.53
2019-02-18T09:00:41.175Z,65.07
2019-02-18T09:03:08.095Z,63.07
2019-02-18T09:05:35.057Z,62.77
2019-02-18T09:08:02.101Z,61.97
2019-02-18T09:10:33.615Z,59.90
2019-02-18T09:12:58.007Z,57.47
2019-02-18T09:15:25.145Z,58.23
2019-02-18T09:17:52.090Z,55.17
2019-02-18T09:20:19.115Z,57.93
2019-02-18T09:23:04.419Z,53.10
2019-02-18T09:25:51.748Z,53.73
2019-02-18T09:28:18.699Z,52.07
2019-02-18T09:30:49.373Z,52.93
2019-02-18T09:33:16.315Z,52.33
2019-02-18T09:35:43.346Z,52.03
2019-02-18T09:38:10.247Z,50.63
2019-02-18T09:40:44.270Z,48.83
2019-02-18T09:43:06.162Z,47.03
2019-02-18T09:45:33.180Z,49.67
2019-02-18T09:48:00.274Z,47.87
2019-02-18T09:50:27.376Z,47.77
2019-02-18T09:52:54.346Z,45.87
2019-02-18T09:55:21.324Z,45.70
2019-02-18T09:57:48.256Z,44.53
2019-02-18T10:00:15.291Z,43.97
2019-02-18T10:02:42.265Z,46.83
2019-02-18T10:05:09.220Z,44.73
2019-02-18T10:07:36.454Z,42.80
2019-02-18T10:10:04.739Z,44.23
2019-02-18T10:12:32.027Z,43.67
2019-02-18T10:14:58.949Z,43.53
2019-02-18T10:17:26.128Z,41.77
2019-02-18T10:19:53.182Z,39.03
2019-02-18T10:22:20.014Z,38.20
2019-02-18T10:24:50.407Z,40.03
2019-02-18T10:27:15.805Z,37.90
2019-02-18T10:29:42.723Z,39.10
2019-02-18T10:32:09.770Z,37.60
2019-02-18T10:34:36.591Z,37.07
2019-02-18T10:37:03.610Z,37.20
2019-02-18T10:39:30.477Z,38.80
2019-02-18T10:41:57.494Z,37.40
2019-02-18T10:44:37.306Z,36.87
2019-02-18T10:47:17.443Z,36.57
2019-02-18T10:49:44.308Z,38.37
2019-02-18T10:52:11.220Z,37.73
2019-02-18T10:54:38.237Z,38.63
2019-02-18T10:57:05.306Z,38.20
2019-02-18T10:59:32.310Z,37.40
2019-02-18T11:01:59.226Z,36.90
2019-02-18T11:04:26.477Z,37.43
2019-02-18T11:06:53.390Z,36.00
2019-02-18T11:09:20.446Z,36.90
2019-02-18T11:11:47.515Z,35.83
2019-02-18T11:14:14.441Z,35.03
2019-02-18T11:16:41.261Z,35.30
2019-02-18T11:19:08.262Z,34.97
2019-02-18T11:21:35.185Z,33.90
2019-02-18T11:24:02.206Z,35.67
2019-02-18T11:26:29.260Z,34.20
2019-02-18T11:28:56.281Z,34.50
2019-02-18T11:31:23.528Z,34.90
2019-02-18T11:33:50.370Z,34.10
2019-02-18T11:36:17.400Z,32.10
2019-02-18T11:38:44.316Z,33.30
2019-02-18T11:41:11.308Z,32.97
2019-02-18T11:43:38.214Z,31.77
2019-02-18T11:46:05.141Z,34.93
2019-02-18T11:48:32.378Z,30.43
2019-02-18T11:50:59.393Z,31.43
2019-02-18T11:53:26.310Z,30.97
2019-02-18T11:55:53.259Z,31.57
2019-02-18T11:58:20.276Z,32.27
2019-02-18T12:00:47.180Z,31.70
2019-02-18T12:03:14.112Z,33.97
2019-02-18T12:05:41.637Z,31.47
2019-02-18T12:08:08.640Z,31.97
2019-02-18T12:10:35.591Z,31.30
2019-02-18T12:13:02.725Z,32.40
2019-02-18T12:15:29.648Z,32.10
2019-02-18T12:17:56.627Z,32.80
2019-02-18T12:20:23.548Z,31.43
2019-02-18T12:22:50.421Z,32.10
2019-02-18T12:25:17.384Z,32.13
2019-02-18T12:27:44.286Z,32.63
2019-02-18T12:30:11.732Z,31.23
2019-02-18T12:32:38.897Z,31.33
2019-02-18T12:35:06.162Z,29.93
2019-02-18T12:37:33.174Z,31.17
2019-02-18T12:40:00.025Z,30.43
2019-02-18T12:42:26.843Z,29.90
2019-02-18T12:44:54.153Z,29.07
2019-02-18T12:47:21.222Z,30.10
2019-02-18T12:49:48.097Z,29.43
2019-02-18T12:52:15.025Z,28.20
2019-02-18T12:54:42.009Z,29.43
2019-02-18T12:57:08.920Z,29.73
2019-02-18T12:59:36.002Z,31.10
2019-02-18T13:02:03.193Z,29.43
2019-02-18T13:04:32.043Z,27.53
2019-02-18T13:06:59.082Z,28.83
2019-02-18T13:09:26.068Z,28.97
2019-02-18T13:11:58.936Z,29.87
2019-02-18T13:14:22.052Z,31.60
2019-02-18T13:16:49.158Z,27.53
2019-02-18T13:19:16.077Z,27.40
2019-02-18T13:21:43.000Z,29.13
2019-02-18T13:24:10.156Z,27.57
2019-02-18T13:26:37.583Z,28.03
2019-02-18T13:29:04.676Z,29.00
2019-02-18T13:31:31.680Z,28.00
2019-02-18T13:33:58.641Z,27.43
2019-02-18T13:36:25.659Z,26.90
2019-02-18T13:38:52.735Z,28.40
2019-02-18T13:41:19.753Z,28.57
2019-02-18T13:43:46.686Z,28.27
2019-02-18T13:46:13.732Z,28.57
2019-02-18T13:48:40.761Z,29.73
2019-02-18T13:51:07.790Z,27.27
2019-02-18T13:53:34.768Z,28.00
2019-02-18T13:56:01.876Z,26.97
2019-02-18T13:58:28.875Z,27.40
2019-02-18T14:00:55.849Z,28.50
2019-02-18T14:03:23.191Z,27.80
2019-02-18T14:05:50.197Z,29.20
2019-02-18T14:08:17.121Z,28.77
2019-02-18T14:10:44.117Z,29.03
2019-02-18T14:13:11.155Z,28.83
2019-02-18T14:15:38.097Z,29.50
2019-02-18T14:18:05.222Z,30.43
2019-02-18T14:20:32.229Z,28.93
2019-02-18T14:22:59.306Z,28.37
2019-02-18T14:25:26.231Z,29.33
2019-02-18T14:27:53.167Z,28.17
2019-02-18T14:30:20.603Z,30.27
2019-02-18T14:32:47.653Z,29.20
2019-02-18T14:35:15.831Z,29.87
2019-02-18T14:37:42.795Z,31.00
2019-02-18T14:40:12.556Z,31.63
2019-02-18T14:42:39.595Z,32.10
2019-02-18T14:45:06.614Z,29.43
2019-02-18T14:47:33.662Z,30.20
2019-02-18T14:50:00.676Z,30.97
2019-02-18T14:52:27.748Z,30.30
2019-02-18T14:54:54.670Z,30.70
2019-02-18T14:57:22.803Z,30.10
2019-02-18T14:59:49.895Z,30.00
2019-02-18T15:02:17.152Z,31.57
2019-02-18T15:04:44.478Z,31.40
2019-02-18T15:07:11.459Z,31.30
2019-02-18T15:09:38.390Z,32.13
2019-02-18T15:12:06.113Z,32.57
2019-02-18T15:14:33.362Z,33.47
2019-02-18T15:17:00.194Z,32.30
2019-02-18T15:19:27.129Z,31.33
2019-02-18T15:21:54.008Z,32.77
2019-02-18T15:24:21.013Z,34.00
2019-02-18T15:26:47.930Z,32.97
2019-02-18T15:29:15.072Z,30.90
2019-02-18T15:31:41.925Z,34.50
2019-02-18T15:34:09.167Z,32.33
2019-02-18T15:36:36.129Z,32.60
2019-02-18T15:39:04.987Z,32.13
2019-02-18T15:41:32.159Z,32.43
2019-02-18T15:43:59.113Z,33.83
2019-02-18T15:46:26.230Z,33.27
2019-02-18T15:48:53.348Z,33.50
2019-02-18T15:51:20.836Z,33.30
2019-02-18T15:53:47.743Z,32.37
2019-02-18T15:56:15.017Z,32.70
2019-02-18T15:58:42.210Z,32.63
2019-02-18T16:01:09.350Z,32.60
2019-02-18T16:03:36.251Z,32.10
2019-02-18T16:06:03.522Z,34.30
2019-02-18T16:08:31.066Z,35.30
2019-02-18T16:10:58.086Z,34.67
2019-02-18T16:13:25.034Z,34.13
2019-02-18T16:15:52.077Z,35.63
2019-02-18T16:18:19.005Z,36.77
2019-02-18T16:20:46.086Z,35.07
2019-02-18T16:23:12.975Z,34.93
2019-02-18T16:25:39.878Z,36.77
2019-02-18T16:28:07.137Z,36.93
2019-02-18T16:30:34.166Z,38.23
2019-02-18T16:33:01.169Z,37.93
2019-02-18T16:35:28.635Z,37.10
2019-02-18T16:37:56.236Z,36.03
2019-02-18T16:40:23.695Z,36.33
2019-02-18T16:42:58.909Z,36.30
2019-02-18T16:45:20.388Z,36.63
2019-02-18T16:47:47.422Z,37.20
2019-02-18T16:50:14.531Z,36.47
2019-02-18T16:52:41.582Z,37.30
2019-02-18T16:55:09.759Z,37.90
2019-02-18T16:57:38.181Z,36.83
2019-02-18T17:00:13.738Z,38.97
2019-02-18T17:02:40.706Z,38.57
2019-02-18T17:05:07.941Z,38.63
2019-02-18T17:07:34.877Z,39.73
2019-02-18T17:10:04.517Z,39.13
2019-02-18T17:12:31.532Z,38.17
2019-02-18T17:14:58.709Z,39.17
2019-02-18T17:17:26.111Z,41.27
2019-02-18T17:19:53.143Z,40.63
2019-02-18T17:22:20.120Z,39.83
2019-02-18T17:24:47.478Z,39.80
2019-02-18T17:27:14.418Z,39.23
2019-02-18T17:29:41.231Z,38.47
2019-02-18T17:32:08.206Z,39.60
2019-02-18T17:34:35.650Z,42.10
2019-02-18T17:37:02.615Z,39.27
2019-02-18T17:39:29.812Z,40.27
2019-02-18T17:41:56.753Z,41.07
2019-02-18T17:44:23.790Z,41.17
2019-02-18T17:46:50.714Z,41.13
2019-02-18T17:49:17.554Z,40.40
2019-02-18T17:51:44.710Z,41.77
2019-02-18T17:54:12.196Z,41.90
2019-02-18T17:56:39.024Z,41.57
2019-02-18T17:59:05.957Z,42.53
2019-02-18T18:01:32.940Z,40.60
2019-02-18T18:03:59.877Z,42.27
2019-02-18T18:06:26.916Z,40.40
2019-02-18T18:08:54.080Z,41.73
2019-02-18T18:11:21.194Z,43.03
2019-02-18T18:13:48.338Z,42.90
2019-02-18T18:16:15.528Z,42.33
2019-02-18T18:18:42.455Z,43.20
2019-02-18T18:21:09.369Z,43.80
2019-02-18T18:23:36.349Z,42.83
2019-02-18T18:26:03.279Z,44.07
2019-02-18T18:28:30.297Z,44.13
2019-02-18T18:30:57.548Z,45.87
2019-02-18T18:33:24.708Z,45.27
2019-02-18T18:35:51.842Z,45.33
2019-02-18T18:38:18.800Z,44.83
2019-02-18T18:40:45.834Z,46.33
2019-02-18T18:43:12.736Z,45.07
2019-02-18T18:45:39.986Z,46.60
2019-02-18T18:48:07.424Z,44.07
2019-02-18T18:50:34.573Z,44.53
2019-02-18T18:53:01.774Z,45.57
2019-02-18T18:55:28.771Z,44.90
2019-02-18T18:57:55.790Z,42.47
2019-02-18T19:00:24.465Z,44.70
2019-02-18T19:02:51.610Z,46.63
2019-02-18T19:05:19.163Z,45.63
2019-02-18T19:07:46.017Z,47.37
2019-02-18T19:10:13.036Z,47.80
2019-02-18T19:12:40.046Z,46.37
2019-02-18T19:15:07.714Z,47.43
2019-02-18T19:17:34.672Z,47.17
2019-02-18T19:20:01.584Z,49.83
2019-02-18T19:22:30.267Z,47.80
2019-02-18T19:24:57.218Z,47.97
2019-02-18T19:27:24.142Z,48.23
2019-02-18T19:29:51.093Z,47.23
2019-02-18T19:32:18.142Z,47.57
2019-02-18T19:34:45.045Z,45.97
2019-02-18T19:37:12.012Z,47.20
2019-02-18T19:39:39.346Z,49.73
2019-02-18T19:42:06.262Z,48.57
2019-02-18T19:44:33.120Z,49.57
2019-02-18T19:47:00.134Z,50.20
2019-02-18T19:49:27.064Z,48.53
2019-02-18T19:51:53.897Z,50.83
2019-02-18T19:54:20.715Z,50.63
2019-02-18T19:56:48.142Z,50.73
2019-02-18T19:59:15.111Z,52.10
2019-02-18T20:01:41.939Z,49.87
2019-02-18T20:04:08.818Z,50.57
2019-02-18T20:06:35.787Z,50.13
2019-02-18T20:09:05.891Z,48.07
2019-02-18T20:11:32.795Z,48.20
2019-02-18T20:14:00.077Z,48.73
2019-02-18T20:16:26.915Z,48.50
2019-02-18T20:18:53.858Z,47.80
2019-02-18T20:21:20.966Z,49.57
2019-02-18T20:23:47.868Z,50.50
2019-02-18T20:26:14.796Z,50.40
2019-02-18T20:28:41.858Z,52.77
2019-02-18T20:31:09.302Z,51.53
2019-02-18T20:33:36.263Z,52.80
2019-02-18T20:36:03.293Z,50.73
2019-02-18T20:38:30.210Z,51.40
2019-02-18T20:40:57.230Z,50.17
2019-02-18T20:43:24.170Z,50.17
2019-02-18T20:45:51.011Z,51.33
2019-02-18T20:48:17.850Z,50.77
2019-02-18T20:50:44.785Z,51.67
2019-02-18T20:53:11.781Z,55.33
2019-02-18T20:55:38.708Z,54.90
2019-02-18T20:58:05.761Z,55.10
2019-02-18T21:00:32.779Z,54.27
2019-02-18T21:02:59.594Z,58.33
2019-02-18T21:05:26.458Z,58.50
2019-02-18T21:07:53.686Z,57.20
2019-02-18T21:10:20.725Z,53.27
2019-02-18T21:12:47.769Z,51.83
2019-02-18T21:15:14.887Z,51.17
2019-02-18T21:17:41.918Z,53.37
2019-02-18T21:20:09.042Z,52.63
2019-02-18T21:22:36.045Z,53.73
2019-02-18T21:25:03.698Z,55.37
2019-02-18T21:27:30.540Z,53.67
2019-02-18T21:29:57.334Z,54.00
2019-02-18T21:32:24.122Z,52.40
2019-02-18T21:34:50.979Z,52.60
2019-02-18T21:37:17.886Z,50.23
2019-02-18T21:40:04.451Z,50.10
2019-02-18T21:42:31.410Z,48.83
2019-02-18T21:44:58.206Z,47.47
2019-02-18T21:47:25.158Z,46.27
2019-02-18T21:49:52.077Z,44.67
2019-02-18T21:52:18.995Z,43.13
2019-02-18T21:54:45.926Z,41.03
2019-02-18T21:57:13.154Z,39.10
2019-02-18T21:59:40.552Z,39.83
2019-02-18T22:02:07.482Z,41.17
2019-02-18T22:04:34.297Z,40.97
2019-02-18T22:07:01.161Z,42.07
2019-02-18T22:09:28.165Z,40.13
2019-02-18T22:11:54.974Z,41.23
2019-02-18T22:14:21.797Z,42.47
2019-02-18T22:16:49.144Z,40.23
2019-02-18T22:19:15.946Z,41.57
2019-02-18T22:21:42.762Z,41.67
2019-02-18T22:24:09.715Z,41.50
2019-02-18T22:26:36.535Z,41.67
2019-02-18T22:29:03.452Z,41.87
2019-02-18T22:31:30.403Z,42.30
2019-02-18T22:33:57.227Z,41.23
2019-02-18T22:36:24.342Z,40.67
2019-02-18T22:38:51.183Z,42.77
2019-02-18T22:41:18.087Z,42.67
2019-02-18T22:43:45.001Z,42.33
2019-02-18T22:46:12.117Z,41.80
2019-02-18T22:48:39.023Z,41.67
2019-02-18T22:51:05.981Z,40.60
2019-02-18T22:53:33.056Z,40.97
2019-02-18T22:56:00.165Z,42.30
2019-02-18T22:58:27.191Z,42.37
2019-02-18T23:00:57.840Z,41.07
2019-02-18T23:03:24.928Z,39.73
2019-02-18T23:05:52.042Z,41.50
2019-02-18T23:08:19.006Z,43.03
2019-02-18T23:10:45.914Z,42.87
2019-02-18T23:13:12.738Z,42.97
2019-02-18T23:15:39.688Z,41.53
2019-02-18T23:18:06.605Z,40.67
2019-02-18T23:20:33.616Z,40.57
2019-02-18T23:23:00.585Z,42.83
2019-02-18T23:25:27.495Z,40.47
2019-02-18T23:27:54.420Z,39.83
2019-02-18T23:30:21.396Z,41.70
2019-02-18T23:32:48.409Z,40.50
2019-02-18T23:35:15.418Z,41.93
2019-02-18T23:37:42.353Z,42.93
2019-02-18T23:40:09.290Z,40.97
2019-02-18T23:42:36.461Z,40.57
2019-02-18T23:45:03.554Z,42.00
2019-02-18T23:47:30.390Z,40.33
2019-02-18T23:49:57.201Z,40.57
2019-02-18T23:52:24.191Z,36.67
2019-02-18T23:54:51.112Z,37.87
2019-02-18T23:57:18.135Z,36.40
2019-02-18T23:59:45.194Z,34.97
